sensor_id;sensor_type;location;lat;lon;timestamp;temperature;humidity
10660;DHT22;5378;53.206;13.316;2022-12-07T00:01:56;4.40;99.90
10660;DHT22;5378;53.206;13.316;2022-12-07T00:04:43;4.30;99.90
10660;DHT22;5378;53.206;13.316;2022-12-07T00:07:30;4.30;99.90
10660;DHT22;5378;53.206;13.316;2022-12-07T00:10:17;4.30;99.90
10660;DHT22;5378;53.206;13.316;2022-12-07T00:13:04;4.40;99.90
10660;DHT22;5378;53.206;13.316;2022-12-07T00:15:53;4.40;99.90
10660;DHT22;5378;53.206;13.316;2022-12-07T00:18:40;4.30;99.90
10660;DHT22;5378;53.206;13.316;2022-12-07T00:21:30;4.30;99.90
10660;DHT22;5378;53.206;13.316;2022-12-07T00:24:17;4.20;99.90
10660;DHT22;5378;53.206;13.316;2022-12-07T00:27:04;4.20;99.90
10660;DHT22;5378;53.206;13.316;2022-12-07T00:29:51;4.20;99.90
10660;DHT22;5378;53.206;13.316;2022-12-07T00:32:40;4.20;99.90
10660;DHT22;5378;53.206;13.316;2022-12-07T00:35:27;4.10;99.90
10660;DHT22;5378;53.206;13.316;2022-12-07T00:38:14;4.10;99.90
10660;DHT22;5378;53.206;13.316;2022-12-07T00:41:03;4.00;99.90
10660;DHT22;5378;53.206;13.316;2022-12-07T00:43:51;4.00;99.90
10660;DHT22;5378;53.206;13.316;2022-12-07T00:46:38;4.00;99.90
10660;DHT22;5378;53.206;13.316;2022-12-07T00:49:27;4.10;99.90
10660;DHT22;5378;53.206;13.316;2022-12-07T00:52:14;4.10;99.90
10660;DHT22;5378;53.206;13.316;2022-12-07T00:55:01;4.10;99.90
10660;DHT22;5378;53.206;13.316;2022-12-07T00:57:48;4.10;99.90
10660;DHT22;5378;53.206;13.316;2022-12-07T01:00:37;4.10;99.90
10660;DHT22;5378;53.206;13.316;2022-12-07T01:03:24;4.10;99.90
10660;DHT22;5378;53.206;13.316;2022-12-07T01:06:15;4.10;99.90
10660;DHT22;5378;53.206;13.316;2022-12-07T01:09:03;4.10;99.90
10660;DHT22;5378;53.206;13.316;2022-12-07T01:11:51;4.00;99.90
10660;DHT22;5378;53.206;13.316;2022-12-07T01:14:38;4.00;99.90
10660;DHT22;5378;53.206;13.316;2022-12-07T01:17:26;3.90;99.90
10660;DHT22;5378;53.206;13.316;2022-12-07T01:20:13;3.80;99.90
10660;DHT22;5378;53.206;13.316;2022-12-07T01:23:06;3.80;99.90
10660;DHT22;5378;53.206;13.316;2022-12-07T01:25:55;3.80;99.90
10660;DHT22;5378;53.206;13.316;2022-12-07T01:28:42;3.70;99.90
10660;DHT22;5378;53.206;13.316;2022-12-07T01:31:30;3.60;99.90
10660;DHT22;5378;53.206;13.316;2022-12-07T01:34:17;3.50;99.90
10660;DHT22;5378;53.206;13.316;2022-12-07T01:37:04;3.30;99.90
10660;DHT22;5378;53.206;13.316;2022-12-07T01:39:52;3.20;99.90
10660;DHT22;5378;53.206;13.316;2022-12-07T01:42:40;3.20;99.90
10660;DHT22;5378;53.206;13.316;2022-12-07T01:45:42;3.20;99.90
10660;DHT22;5378;53.206;13.316;2022-12-07T01:48:32;3.00;99.90
10660;DHT22;5378;53.206;13.316;2022-12-07T01:51:19;2.90;99.90
10660;DHT22;5378;53.206;13.316;2022-12-07T01:54:07;3.00;99.90
10660;DHT22;5378;53.206;13.316;2022-12-07T01:56:57;3.10;99.90
10660;DHT22;5378;53.206;13.316;2022-12-07T01:59:45;3.10;99.90
10660;DHT22;5378;53.206;13.316;2022-12-07T02:02:36;3.20;99.90
10660;DHT22;5378;53.206;13.316;2022-12-07T02:05:25;3.20;99.90
10660;DHT22;5378;53.206;13.316;2022-12-07T02:08:12;3.30;99.90
10660;DHT22;5378;53.206;13.316;2022-12-07T02:11:00;3.30;99.90
10660;DHT22;5378;53.206;13.316;2022-12-07T02:13:49;3.40;99.90
10660;DHT22;5378;53.206;13.316;2022-12-07T02:16:46;3.40;99.90
10660;DHT22;5378;53.206;13.316;2022-12-07T02:20:00;3.40;99.90
10660;DHT22;5378;53.206;13.316;2022-12-07T02:23:17;3.40;99.90
10660;DHT22;5378;53.206;13.316;2022-12-07T02:29:34;3.50;99.90
10660;DHT22;5378;53.206;13.316;2022-12-07T02:32:26;3.50;99.90
10660;DHT22;5378;53.206;13.316;2022-12-07T02:35:18;3.50;99.90
10660;DHT22;5378;53.206;13.316;2022-12-07T02:38:11;3.60;99.90
10660;DHT22;5378;53.206;13.316;2022-12-07T02:41:04;3.50;99.90
10660;DHT22;5378;53.206;13.316;2022-12-07T02:43:52;3.60;99.90
10660;DHT22;5378;53.206;13.316;2022-12-07T02:46:44;3.60;99.90
10660;DHT22;5378;53.206;13.316;2022-12-07T02:49:34;3.60;99.90
10660;DHT22;5378;53.206;13.316;2022-12-07T02:52:22;3.60;99.90
10660;DHT22;5378;53.206;13.316;2022-12-07T02:55:10;3.60;99.90
10660;DHT22;5378;53.206;13.316;2022-12-07T02:58:08;3.60;99.90
10660;DHT22;5378;53.206;13.316;2022-12-07T03:01:06;3.50;99.90
10660;DHT22;5378;53.206;13.316;2022-12-07T03:04:02;3.50;99.90
10660;DHT22;5378;53.206;13.316;2022-12-07T03:06:56;3.60;99.90
10660;DHT22;5378;53.206;13.316;2022-12-07T03:09:52;3.60;99.90
10660;DHT22;5378;53.206;13.316;2022-12-07T03:12:45;3.60;99.90
10660;DHT22;5378;53.206;13.316;2022-12-07T03:15:38;3.60;99.90
10660;DHT22;5378;53.206;13.316;2022-12-07T03:18:30;3.60;99.90
10660;DHT22;5378;53.206;13.316;2022-12-07T03:21:22;3.50;99.90
10660;DHT22;5378;53.206;13.316;2022-12-07T03:24:13;3.50;99.90
10660;DHT22;5378;53.206;13.316;2022-12-07T03:27:04;3.50;99.90
10660;DHT22;5378;53.206;13.316;2022-12-07T03:29:58;3.50;99.90
10660;DHT22;5378;53.206;13.316;2022-12-07T03:32:51;3.50;99.90
10660;DHT22;5378;53.206;13.316;2022-12-07T03:35:42;3.50;99.90
10660;DHT22;5378;53.206;13.316;2022-12-07T03:38:35;3.50;99.90
10660;DHT22;5378;53.206;13.316;2022-12-07T03:41:25;3.50;99.90
10660;DHT22;5378;53.206;13.316;2022-12-07T03:44:15;3.60;99.90
10660;DHT22;5378;53.206;13.316;2022-12-07T03:47:05;3.60;99.90
10660;DHT22;5378;53.206;13.316;2022-12-07T03:49:58;3.60;99.90
10660;DHT22;5378;53.206;13.316;2022-12-07T03:52:48;3.50;99.90
10660;DHT22;5378;53.206;13.316;2022-12-07T03:55:42;3.50;99.90
10660;DHT22;5378;53.206;13.316;2022-12-07T03:58:31;3.40;99.90
10660;DHT22;5378;53.206;13.316;2022-12-07T04:01:18;3.30;99.90
10660;DHT22;5378;53.206;13.316;2022-12-07T04:04:05;3.30;99.90
10660;DHT22;5378;53.206;13.316;2022-12-07T04:06:52;3.40;99.90
10660;DHT22;5378;53.206;13.316;2022-12-07T04:09:40;3.40;99.90
10660;DHT22;5378;53.206;13.316;2022-12-07T04:12:28;3.40;99.90
10660;DHT22;5378;53.206;13.316;2022-12-07T04:15:15;3.50;99.90
10660;DHT22;5378;53.206;13.316;2022-12-07T04:18:02;3.50;99.90
10660;DHT22;5378;53.206;13.316;2022-12-07T04:20:49;3.50;99.90
10660;DHT22;5378;53.206;13.316;2022-12-07T04:23:36;3.60;99.90
10660;DHT22;5378;53.206;13.316;2022-12-07T04:26:23;3.60;99.90
10660;DHT22;5378;53.206;13.316;2022-12-07T04:29:12;3.60;99.90
10660;DHT22;5378;53.206;13.316;2022-12-07T04:32:00;3.50;99.90
10660;DHT22;5378;53.206;13.316;2022-12-07T04:34:47;3.50;99.90
10660;DHT22;5378;53.206;13.316;2022-12-07T04:37:37;3.50;99.90
10660;DHT22;5378;53.206;13.316;2022-12-07T04:40:25;3.50;99.90
10660;DHT22;5378;53.206;13.316;2022-12-07T04:43:12;3.50;99.90
10660;DHT22;5378;53.206;13.316;2022-12-07T04:46:00;3.60;99.90
10660;DHT22;5378;53.206;13.316;2022-12-07T04:48:48;3.70;99.90
10660;DHT22;5378;53.206;13.316;2022-12-07T04:51:35;3.70;99.90
10660;DHT22;5378;53.206;13.316;2022-12-07T04:54:22;3.70;99.90
10660;DHT22;5378;53.206;13.316;2022-12-07T04:57:09;3.80;99.90
10660;DHT22;5378;53.206;13.316;2022-12-07T04:59:56;3.80;99.90
10660;DHT22;5378;53.206;13.316;2022-12-07T05:02:45;3.90;99.90
10660;DHT22;5378;53.206;13.316;2022-12-07T05:05:33;3.80;99.90
10660;DHT22;5378;53.206;13.316;2022-12-07T05:08:20;3.80;99.90
10660;DHT22;5378;53.206;13.316;2022-12-07T05:11:08;3.80;99.90
10660;DHT22;5378;53.206;13.316;2022-12-07T05:13:55;3.80;99.90
10660;DHT22;5378;53.206;13.316;2022-12-07T05:16:44;3.90;99.90
10660;DHT22;5378;53.206;13.316;2022-12-07T05:19:33;3.90;99.90
10660;DHT22;5378;53.206;13.316;2022-12-07T05:22:20;3.80;99.90
10660;DHT22;5378;53.206;13.316;2022-12-07T05:25:08;3.90;99.90
10660;DHT22;5378;53.206;13.316;2022-12-07T05:27:55;3.90;99.90
10660;DHT22;5378;53.206;13.316;2022-12-07T05:30:43;4.00;99.90
10660;DHT22;5378;53.206;13.316;2022-12-07T05:33:30;4.00;99.90
10660;DHT22;5378;53.206;13.316;2022-12-07T05:36:18;3.90;99.90
10660;DHT22;5378;53.206;13.316;2022-12-07T05:39:06;3.90;99.90
10660;DHT22;5378;53.206;13.316;2022-12-07T05:41:53;3.80;99.90
10660;DHT22;5378;53.206;13.316;2022-12-07T05:44:58;3.80;99.90
10660;DHT22;5378;53.206;13.316;2022-12-07T05:47:45;3.80;99.90
10660;DHT22;5378;53.206;13.316;2022-12-07T05:50:33;3.90;99.90
10660;DHT22;5378;53.206;13.316;2022-12-07T05:53:21;3.90;99.90
10660;DHT22;5378;53.206;13.316;2022-12-07T05:56:08;3.90;99.90
10660;DHT22;5378;53.206;13.316;2022-12-07T05:58:55;4.00;99.90
10660;DHT22;5378;53.206;13.316;2022-12-07T06:02:02;4.00;99.90
10660;DHT22;5378;53.206;13.316;2022-12-07T06:04:49;4.00;99.90
10660;DHT22;5378;53.206;13.316;2022-12-07T06:07:36;4.10;99.90
10660;DHT22;5378;53.206;13.316;2022-12-07T06:10:24;4.10;99.90
10660;DHT22;5378;53.206;13.316;2022-12-07T06:13:12;4.00;99.90
10660;DHT22;5378;53.206;13.316;2022-12-07T06:15:58;4.10;99.90
10660;DHT22;5378;53.206;13.316;2022-12-07T06:18:45;4.10;99.90
10660;DHT22;5378;53.206;13.316;2022-12-07T06:21:32;4.10;99.90
10660;DHT22;5378;53.206;13.316;2022-12-07T06:24:19;4.20;99.90
10660;DHT22;5378;53.206;13.316;2022-12-07T06:27:08;4.20;99.90
10660;DHT22;5378;53.206;13.316;2022-12-07T06:29:55;4.20;99.90
10660;DHT22;5378;53.206;13.316;2022-12-07T06:32:42;4.30;99.90
10660;DHT22;5378;53.206;13.316;2022-12-07T06:35:29;4.30;99.90
10660;DHT22;5378;53.206;13.316;2022-12-07T06:38:19;4.30;99.90
10660;DHT22;5378;53.206;13.316;2022-12-07T06:41:06;4.30;99.90
10660;DHT22;5378;53.206;13.316;2022-12-07T06:43:54;4.20;99.90
10660;DHT22;5378;53.206;13.316;2022-12-07T06:46:41;4.30;99.90
10660;DHT22;5378;53.206;13.316;2022-12-07T06:49:28;4.40;99.90
10660;DHT22;5378;53.206;13.316;2022-12-07T06:52:15;4.40;99.90
10660;DHT22;5378;53.206;13.316;2022-12-07T06:55:03;4.40;99.90
10660;DHT22;5378;53.206;13.316;2022-12-07T06:57:50;4.40;99.90
10660;DHT22;5378;53.206;13.316;2022-12-07T07:00:39;4.50;99.90
10660;DHT22;5378;53.206;13.316;2022-12-07T07:03:27;4.50;99.90
10660;DHT22;5378;53.206;13.316;2022-12-07T07:06:14;4.50;99.90
10660;DHT22;5378;53.206;13.316;2022-12-07T07:09:01;4.40;99.90
10660;DHT22;5378;53.206;13.316;2022-12-07T07:11:48;4.30;99.90
10660;DHT22;5378;53.206;13.316;2022-12-07T07:14:35;4.40;99.90
10660;DHT22;5378;53.206;13.316;2022-12-07T07:17:24;4.30;99.90
10660;DHT22;5378;53.206;13.316;2022-12-07T07:20:12;4.20;99.90
10660;DHT22;5378;53.206;13.316;2022-12-07T07:22:59;4.20;99.90
10660;DHT22;5378;53.206;13.316;2022-12-07T07:25:46;4.20;99.90
10660;DHT22;5378;53.206;13.316;2022-12-07T07:28:33;4.20;99.90
10660;DHT22;5378;53.206;13.316;2022-12-07T07:31:20;4.20;99.90
10660;DHT22;5378;53.206;13.316;2022-12-07T07:34:08;4.30;99.90
10660;DHT22;5378;53.206;13.316;2022-12-07T07:36:56;4.30;99.90
10660;DHT22;5378;53.206;13.316;2022-12-07T07:39:43;4.30;99.90
10660;DHT22;5378;53.206;13.316;2022-12-07T07:42:30;4.30;99.90
10660;DHT22;5378;53.206;13.316;2022-12-07T07:45:18;4.30;99.90
10660;DHT22;5378;53.206;13.316;2022-12-07T07:48:05;4.20;99.90
10660;DHT22;5378;53.206;13.316;2022-12-07T07:50:53;4.20;99.90
10660;DHT22;5378;53.206;13.316;2022-12-07T07:53:41;4.20;99.90
10660;DHT22;5378;53.206;13.316;2022-12-07T07:56:28;4.20;99.90
10660;DHT22;5378;53.206;13.316;2022-12-07T07:59:15;4.30;99.90
10660;DHT22;5378;53.206;13.316;2022-12-07T08:02:02;4.20;99.90
10660;DHT22;5378;53.206;13.316;2022-12-07T08:04:50;4.20;99.90
10660;DHT22;5378;53.206;13.316;2022-12-07T08:07:38;4.30;99.90
10660;DHT22;5378;53.206;13.316;2022-12-07T08:10:25;4.30;99.90
10660;DHT22;5378;53.206;13.316;2022-12-07T08:13:13;4.30;99.90
10660;DHT22;5378;53.206;13.316;2022-12-07T08:16:04;4.20;99.90
10660;DHT22;5378;53.206;13.316;2022-12-07T08:18:51;4.10;99.90
10660;DHT22;5378;53.206;13.316;2022-12-07T08:21:38;4.10;99.90
10660;DHT22;5378;53.206;13.316;2022-12-07T08:24:27;4.20;99.90
10660;DHT22;5378;53.206;13.316;2022-12-07T08:27:14;4.20;99.90
10660;DHT22;5378;53.206;13.316;2022-12-07T08:30:01;4.20;99.90
10660;DHT22;5378;53.206;13.316;2022-12-07T08:32:49;4.20;99.90
10660;DHT22;5378;53.206;13.316;2022-12-07T08:35:36;4.30;99.90
10660;DHT22;5378;53.206;13.316;2022-12-07T08:38:23;4.30;99.90
10660;DHT22;5378;53.206;13.316;2022-12-07T08:41:15;4.40;99.90
10660;DHT22;5378;53.206;13.316;2022-12-07T08:44:02;4.40;99.90
10660;DHT22;5378;53.206;13.316;2022-12-07T08:46:51;4.40;99.90
10660;DHT22;5378;53.206;13.316;2022-12-07T08:49:43;4.40;99.90
10660;DHT22;5378;53.206;13.316;2022-12-07T08:52:31;4.50;99.90
10660;DHT22;5378;53.206;13.316;2022-12-07T08:55:19;4.60;99.90
10660;DHT22;5378;53.206;13.316;2022-12-07T08:58:08;4.70;99.90
10660;DHT22;5378;53.206;13.316;2022-12-07T09:00:55;4.60;99.90
10660;DHT22;5378;53.206;13.316;2022-12-07T09:03:42;4.60;99.90
10660;DHT22;5378;53.206;13.316;2022-12-07T09:06:29;4.50;99.90
10660;DHT22;5378;53.206;13.316;2022-12-07T09:09:16;4.40;99.90
10660;DHT22;5378;53.206;13.316;2022-12-07T09:12:03;4.40;99.90
10660;DHT22;5378;53.206;13.316;2022-12-07T09:14:52;4.40;99.90
10660;DHT22;5378;53.206;13.316;2022-12-07T09:17:39;4.30;99.90
10660;DHT22;5378;53.206;13.316;2022-12-07T09:20:26;4.20;99.90
10660;DHT22;5378;53.206;13.316;2022-12-07T09:23:14;4.20;99.90
10660;DHT22;5378;53.206;13.316;2022-12-07T09:26:01;4.30;99.90
10660;DHT22;5378;53.206;13.316;2022-12-07T09:28:52;4.30;99.90
10660;DHT22;5378;53.206;13.316;2022-12-07T09:31:40;4.30;99.90
10660;DHT22;5378;53.206;13.316;2022-12-07T09:34:30;4.30;99.90
10660;DHT22;5378;53.206;13.316;2022-12-07T09:37:17;4.30;99.90
10660;DHT22;5378;53.206;13.316;2022-12-07T09:40:05;4.20;99.90
10660;DHT22;5378;53.206;13.316;2022-12-07T09:42:53;4.30;99.90
10660;DHT22;5378;53.206;13.316;2022-12-07T09:45:42;4.30;99.90
10660;DHT22;5378;53.206;13.316;2022-12-07T09:48:35;4.40;99.90
10660;DHT22;5378;53.206;13.316;2022-12-07T09:51:24;4.40;99.90
10660;DHT22;5378;53.206;13.316;2022-12-07T09:54:13;4.60;99.90
10660;DHT22;5378;53.206;13.316;2022-12-07T09:57:00;4.60;99.90
10660;DHT22;5378;53.206;13.316;2022-12-07T09:59:47;4.70;99.90
10660;DHT22;5378;53.206;13.316;2022-12-07T10:02:37;4.70;99.90
10660;DHT22;5378;53.206;13.316;2022-12-07T10:05:28;4.80;99.90
10660;DHT22;5378;53.206;13.316;2022-12-07T10:08:16;4.80;99.90
10660;DHT22;5378;53.206;13.316;2022-12-07T10:11:04;4.70;99.90
10660;DHT22;5378;53.206;13.316;2022-12-07T10:14:10;4.80;99.90
10660;DHT22;5378;53.206;13.316;2022-12-07T10:16:58;4.90;99.90
10660;DHT22;5378;53.206;13.316;2022-12-07T10:19:46;4.80;99.90
10660;DHT22;5378;53.206;13.316;2022-12-07T10:22:34;4.70;99.90
10660;DHT22;5378;53.206;13.316;2022-12-07T10:25:22;4.70;99.90
10660;DHT22;5378;53.206;13.316;2022-12-07T10:28:12;4.90;99.90
10660;DHT22;5378;53.206;13.316;2022-12-07T10:31:03;4.90;99.90
10660;DHT22;5378;53.206;13.316;2022-12-07T10:34:02;4.90;99.90
10660;DHT22;5378;53.206;13.316;2022-12-07T10:36:49;4.90;99.90
10660;DHT22;5378;53.206;13.316;2022-12-07T10:39:43;5.00;99.90
10660;DHT22;5378;53.206;13.316;2022-12-07T10:42:32;5.00;99.90
10660;DHT22;5378;53.206;13.316;2022-12-07T10:45:19;4.80;99.90
10660;DHT22;5378;53.206;13.316;2022-12-07T10:48:10;4.90;99.90
10660;DHT22;5378;53.206;13.316;2022-12-07T10:51:04;4.90;99.90
10660;DHT22;5378;53.206;13.316;2022-12-07T10:54:04;4.90;99.90
10660;DHT22;5378;53.206;13.316;2022-12-07T10:57:05;4.90;99.90
10660;DHT22;5378;53.206;13.316;2022-12-07T11:00:04;4.90;99.90
10660;DHT22;5378;53.206;13.316;2022-12-07T11:03:15;4.60;99.90
10660;DHT22;5378;53.206;13.316;2022-12-07T11:06:16;4.40;99.90
10660;DHT22;5378;53.206;13.316;2022-12-07T11:09:33;4.40;99.90
10660;DHT22;5378;53.206;13.316;2022-12-07T11:12:54;4.40;99.90
10660;DHT22;5378;53.206;13.316;2022-12-07T11:16:01;4.50;99.90
10660;DHT22;5378;53.206;13.316;2022-12-07T11:19:05;4.60;99.90
10660;DHT22;5378;53.206;13.316;2022-12-07T11:21:58;4.70;99.90
10660;DHT22;5378;53.206;13.316;2022-12-07T11:24:50;4.70;99.90
10660;DHT22;5378;53.206;13.316;2022-12-07T11:27:44;4.80;99.90
10660;DHT22;5378;53.206;13.316;2022-12-07T11:30:40;4.90;99.90
10660;DHT22;5378;53.206;13.316;2022-12-07T11:33:34;4.90;99.90
10660;DHT22;5378;53.206;13.316;2022-12-07T11:36:34;4.80;99.90
10660;DHT22;5378;53.206;13.316;2022-12-07T11:39:26;4.80;99.90
10660;DHT22;5378;53.206;13.316;2022-12-07T11:42:20;4.90;99.90
10660;DHT22;5378;53.206;13.316;2022-12-07T11:45:13;5.00;99.90
10660;DHT22;5378;53.206;13.316;2022-12-07T11:48:09;4.90;99.90
10660;DHT22;5378;53.206;13.316;2022-12-07T11:50:59;4.90;99.90
10660;DHT22;5378;53.206;13.316;2022-12-07T11:53:51;4.70;99.90
10660;DHT22;5378;53.206;13.316;2022-12-07T11:56:38;4.60;99.90
10660;DHT22;5378;53.206;13.316;2022-12-07T11:59:29;4.40;99.90
10660;DHT22;5378;53.206;13.316;2022-12-07T12:02:21;4.30;99.90
10660;DHT22;5378;53.206;13.316;2022-12-07T12:05:16;4.40;99.90
10660;DHT22;5378;53.206;13.316;2022-12-07T12:08:13;4.40;99.90
10660;DHT22;5378;53.206;13.316;2022-12-07T12:11:36;4.50;99.90
10660;DHT22;5378;53.206;13.316;2022-12-07T12:14:48;4.30;99.90
10660;DHT22;5378;53.206;13.316;2022-12-07T12:17:52;4.10;99.90
10660;DHT22;5378;53.206;13.316;2022-12-07T12:20:46;4.00;99.90
10660;DHT22;5378;53.206;13.316;2022-12-07T12:23:40;3.90;99.90
10660;DHT22;5378;53.206;13.316;2022-12-07T12:26:30;3.80;99.90
10660;DHT22;5378;53.206;13.316;2022-12-07T12:29:22;3.90;99.90
10660;DHT22;5378;53.206;13.316;2022-12-07T12:32:14;3.90;99.90
10660;DHT22;5378;53.206;13.316;2022-12-07T12:35:22;3.90;99.90
10660;DHT22;5378;53.206;13.316;2022-12-07T12:38:30;3.80;99.90
10660;DHT22;5378;53.206;13.316;2022-12-07T12:41:53;3.70;99.90
10660;DHT22;5378;53.206;13.316;2022-12-07T12:45:18;3.70;99.90
10660;DHT22;5378;53.206;13.316;2022-12-07T12:48:35;3.80;99.90
10660;DHT22;5378;53.206;13.316;2022-12-07T12:51:36;3.70;99.90
10660;DHT22;5378;53.206;13.316;2022-12-07T12:54:27;3.80;99.90
10660;DHT22;5378;53.206;13.316;2022-12-07T12:57:19;4.00;99.90
10660;DHT22;5378;53.206;13.316;2022-12-07T13:00:16;4.00;99.90
10660;DHT22;5378;53.206;13.316;2022-12-07T13:03:04;4.10;99.90
10660;DHT22;5378;53.206;13.316;2022-12-07T13:06:18;4.20;99.90
10660;DHT22;5378;53.206;13.316;2022-12-07T13:09:19;4.20;99.90
10660;DHT22;5378;53.206;13.316;2022-12-07T13:12:14;4.20;99.90
10660;DHT22;5378;53.206;13.316;2022-12-07T13:15:01;4.20;99.90
10660;DHT22;5378;53.206;13.316;2022-12-07T13:18:01;4.10;99.90
10660;DHT22;5378;53.206;13.316;2022-12-07T13:20:50;3.90;99.90
10660;DHT22;5378;53.206;13.316;2022-12-07T13:23:39;3.90;99.90
10660;DHT22;5378;53.206;13.316;2022-12-07T13:26:42;3.90;99.90
10660;DHT22;5378;53.206;13.316;2022-12-07T13:29:36;3.90;99.90
10660;DHT22;5378;53.206;13.316;2022-12-07T13:32:25;3.80;99.90
10660;DHT22;5378;53.206;13.316;2022-12-07T13:35:33;3.90;99.90
10660;DHT22;5378;53.206;13.316;2022-12-07T13:38:27;4.00;99.90
10660;DHT22;5378;53.206;13.316;2022-12-07T13:41:16;4.00;99.90
10660;DHT22;5378;53.206;13.316;2022-12-07T13:44:10;4.00;99.90
10660;DHT22;5378;53.206;13.316;2022-12-07T13:47:05;3.70;99.90
10660;DHT22;5378;53.206;13.316;2022-12-07T13:49:55;3.70;99.90
10660;DHT22;5378;53.206;13.316;2022-12-07T13:52:44;3.70;99.90
10660;DHT22;5378;53.206;13.316;2022-12-07T13:55:31;3.70;99.90
10660;DHT22;5378;53.206;13.316;2022-12-07T13:58:18;3.60;99.90
10660;DHT22;5378;53.206;13.316;2022-12-07T14:01:05;3.50;99.90
10660;DHT22;5378;53.206;13.316;2022-12-07T14:03:54;3.40;99.90
10660;DHT22;5378;53.206;13.316;2022-12-07T14:06:48;3.40;99.90
10660;DHT22;5378;53.206;13.316;2022-12-07T14:09:36;3.40;99.90
10660;DHT22;5378;53.206;13.316;2022-12-07T14:12:24;3.40;99.90
10660;DHT22;5378;53.206;13.316;2022-12-07T14:15:20;3.50;99.90
10660;DHT22;5378;53.206;13.316;2022-12-07T14:18:25;3.60;99.90
10660;DHT22;5378;53.206;13.316;2022-12-07T14:21:17;3.60;99.90
10660;DHT22;5378;53.206;13.316;2022-12-07T14:24:14;3.50;99.90
10660;DHT22;5378;53.206;13.316;2022-12-07T14:27:02;3.40;99.90
10660;DHT22;5378;53.206;13.316;2022-12-07T14:29:49;3.40;99.90
10660;DHT22;5378;53.206;13.316;2022-12-07T14:32:37;3.40;99.90
10660;DHT22;5378;53.206;13.316;2022-12-07T14:35:24;3.40;99.90
10660;DHT22;5378;53.206;13.316;2022-12-07T14:38:13;3.40;99.90
10660;DHT22;5378;53.206;13.316;2022-12-07T14:41:00;3.20;99.90
10660;DHT22;5378;53.206;13.316;2022-12-07T14:44:01;3.20;99.90
10660;DHT22;5378;53.206;13.316;2022-12-07T14:47:08;3.10;99.90
10660;DHT22;5378;53.206;13.316;2022-12-07T14:50:17;3.10;99.90
10660;DHT22;5378;53.206;13.316;2022-12-07T14:53:10;3.10;99.90
10660;DHT22;5378;53.206;13.316;2022-12-07T14:56:16;3.10;99.90
10660;DHT22;5378;53.206;13.316;2022-12-07T14:59:02;3.00;99.90
10660;DHT22;5378;53.206;13.316;2022-12-07T15:01:50;3.00;99.90
10660;DHT22;5378;53.206;13.316;2022-12-07T15:04:37;2.90;99.90
10660;DHT22;5378;53.206;13.316;2022-12-07T15:07:24;2.90;99.90
10660;DHT22;5378;53.206;13.316;2022-12-07T15:10:16;2.90;99.90
10660;DHT22;5378;53.206;13.316;2022-12-07T15:13:08;2.90;99.90
10660;DHT22;5378;53.206;13.316;2022-12-07T15:16:13;2.90;99.90
10660;DHT22;5378;53.206;13.316;2022-12-07T15:19:01;3.00;99.90
10660;DHT22;5378;53.206;13.316;2022-12-07T15:22:08;3.10;99.90
10660;DHT22;5378;53.206;13.316;2022-12-07T15:24:56;3.10;99.90
10660;DHT22;5378;53.206;13.316;2022-12-07T15:27:43;3.10;99.90
10660;DHT22;5378;53.206;13.316;2022-12-07T15:30:32;3.10;99.90
10660;DHT22;5378;53.206;13.316;2022-12-07T15:33:19;3.20;99.90
10660;DHT22;5378;53.206;13.316;2022-12-07T15:36:06;3.30;99.90
10660;DHT22;5378;53.206;13.316;2022-12-07T15:38:55;3.20;99.90
10660;DHT22;5378;53.206;13.316;2022-12-07T15:41:57;3.40;99.90
10660;DHT22;5378;53.206;13.316;2022-12-07T15:44:44;3.40;99.90
10660;DHT22;5378;53.206;13.316;2022-12-07T15:47:51;3.50;99.90
10660;DHT22;5378;53.206;13.316;2022-12-07T15:51:02;3.60;99.90
10660;DHT22;5378;53.206;13.316;2022-12-07T15:53:49;3.50;99.90
10660;DHT22;5378;53.206;13.316;2022-12-07T15:56:37;3.50;99.90
10660;DHT22;5378;53.206;13.316;2022-12-07T15:59:26;3.60;99.90
10660;DHT22;5378;53.206;13.316;2022-12-07T16:02:13;3.60;99.90
10660;DHT22;5378;53.206;13.316;2022-12-07T16:05:02;3.50;99.90
10660;DHT22;5378;53.206;13.316;2022-12-07T16:07:49;3.50;99.90
10660;DHT22;5378;53.206;13.316;2022-12-07T16:10:37;3.50;99.90
10660;DHT22;5378;53.206;13.316;2022-12-07T16:13:24;3.50;99.90
10660;DHT22;5378;53.206;13.316;2022-12-07T16:16:13;3.50;99.90
10660;DHT22;5378;53.206;13.316;2022-12-07T16:19:00;3.50;99.90
10660;DHT22;5378;53.206;13.316;2022-12-07T16:21:49;3.60;99.90
10660;DHT22;5378;53.206;13.316;2022-12-07T16:24:36;3.50;99.90
10660;DHT22;5378;53.206;13.316;2022-12-07T16:27:23;3.50;99.90
10660;DHT22;5378;53.206;13.316;2022-12-07T16:30:12;3.50;99.90
10660;DHT22;5378;53.206;13.316;2022-12-07T16:33:02;3.50;99.90
10660;DHT22;5378;53.206;13.316;2022-12-07T16:35:49;3.60;99.90
10660;DHT22;5378;53.206;13.316;2022-12-07T16:38:37;3.60;99.90
10660;DHT22;5378;53.206;13.316;2022-12-07T16:41:25;3.60;99.90
10660;DHT22;5378;53.206;13.316;2022-12-07T16:44:12;3.60;99.90
10660;DHT22;5378;53.206;13.316;2022-12-07T16:47:00;3.60;99.90
10660;DHT22;5378;53.206;13.316;2022-12-07T16:49:47;3.60;99.90
10660;DHT22;5378;53.206;13.316;2022-12-07T16:52:34;3.50;99.90
10660;DHT22;5378;53.206;13.316;2022-12-07T16:55:22;3.60;99.90
10660;DHT22;5378;53.206;13.316;2022-12-07T16:58:10;3.60;99.90
10660;DHT22;5378;53.206;13.316;2022-12-07T17:00:57;3.60;99.90
10660;DHT22;5378;53.206;13.316;2022-12-07T17:03:45;3.40;99.90
10660;DHT22;5378;53.206;13.316;2022-12-07T17:06:32;3.50;99.90
10660;DHT22;5378;53.206;13.316;2022-12-07T17:09:20;3.50;99.90
10660;DHT22;5378;53.206;13.316;2022-12-07T17:12:08;3.30;99.90
10660;DHT22;5378;53.206;13.316;2022-12-07T17:14:55;3.30;99.90
10660;DHT22;5378;53.206;13.316;2022-12-07T17:17:59;3.40;99.90
10660;DHT22;5378;53.206;13.316;2022-12-07T17:20:46;3.40;99.90
10660;DHT22;5378;53.206;13.316;2022-12-07T17:23:34;3.40;99.90
10660;DHT22;5378;53.206;13.316;2022-12-07T17:26:24;3.50;99.90
10660;DHT22;5378;53.206;13.316;2022-12-07T17:29:17;3.50;99.90
10660;DHT22;5378;53.206;13.316;2022-12-07T17:32:04;3.50;99.90
10660;DHT22;5378;53.206;13.316;2022-12-07T17:34:51;3.20;99.90
10660;DHT22;5378;53.206;13.316;2022-12-07T17:37:38;3.20;99.90
10660;DHT22;5378;53.206;13.316;2022-12-07T17:40:26;3.20;99.90
10660;DHT22;5378;53.206;13.316;2022-12-07T17:43:13;3.10;99.90
10660;DHT22;5378;53.206;13.316;2022-12-07T17:46:07;3.10;99.90
10660;DHT22;5378;53.206;13.316;2022-12-07T17:48:54;3.10;99.90
10660;DHT22;5378;53.206;13.316;2022-12-07T17:51:42;3.10;99.90
10660;DHT22;5378;53.206;13.316;2022-12-07T17:54:46;2.90;99.90
10660;DHT22;5378;53.206;13.316;2022-12-07T17:57:33;2.80;99.90
10660;DHT22;5378;53.206;13.316;2022-12-07T18:00:21;2.50;99.90
10660;DHT22;5378;53.206;13.316;2022-12-07T18:03:10;2.50;99.90
10660;DHT22;5378;53.206;13.316;2022-12-07T18:05:59;2.50;99.90
10660;DHT22;5378;53.206;13.316;2022-12-07T18:08:46;2.50;99.90
10660;DHT22;5378;53.206;13.316;2022-12-07T18:11:33;2.30;99.90
10660;DHT22;5378;53.206;13.316;2022-12-07T18:14:20;2.30;99.90
10660;DHT22;5378;53.206;13.316;2022-12-07T18:17:08;2.30;99.90
10660;DHT22;5378;53.206;13.316;2022-12-07T18:19:56;2.30;99.90